Palau, PW

83°F / 28°C
Overcast
Heat Index: 97°F / 36°C
Humidity: 97%
Dew Point: 82°F / 28°C
Wind: East at 7 mph / 11 km/h
Pressure: 29.82 in / 1010 hPa (Rising)
Visibility: 10.0 miles / 16.1 kilometers
Clouds: (FEW) : 1000 ft / 304 m
Mostly Cloudy (BKN) : 4000 ft / 1219 m
Overcast (OVC) : 4900 ft / 1493 m
Yesterday's Maximum: 92°F / 33°C
Yesterday's Minimum: 78°F / 26°C approx.
Yesterday's Cooling Degree Days: 20 approx.
UV: 2 out of 16
Sunrise:5:49 AM +09
Sunset:6:10 PM +09
Moon Rise:2:13 PM +09
Moon Set:1:59 AM +09
Moon Phase Waxing Gibbous
Marine Forecast & Tides
NOAA Weather Radio
No local feed.
METAR PGUM 242254Z 08006KT 10SM FEW010 BKN040 OVC049 28/28 A2985 RMK AO2 RAB12E53 SLP098 P0000 T02830278
As of: 8:54 AM ChST on April 25, 2018
Observed at: Guam Agana, GU

View Station's History

Current Radar


Region Default Local
No Yes
No Yes

View Full Screen WunderMap

Forecast

Today
partlycloudy
86° | 78°F
30° | 26°C
Thursday
partlycloudy
86° | 78°F
30° | 26°C
Friday
chancetstorms
86° | 78°F
30° | 26°C
Today is forecast to be
Cooler than yesterday.
No Yes

Scientific Forecaster Discussion

Warnings & Notices

There are no active warnings for this location at this time.

View Palau Advisories

Features

Weather Apps

WunderRadio

Weather Underground Apps
Check out our wide variety of mobile and setup applications.

Weather Underground Applications

Top of Page

© Copyright 2018
The Weather Company, LLC